sensor_id;sensor_type;location;lat;lon;timestamp;pressure;altitude;pressure_sealevel;temperature;humidity
72124;BME280;63818;37.134;-8.548;2022-12-07T00:01:32;101254.9;;;15.1;92.7
72124;BME280;63818;37.134;-8.548;2022-12-07T00:06:25;101250.6;;;15.0;92.6
72124;BME280;63818;37.134;-8.548;2022-12-07T00:11:15;101237.7;;;14.9;93.1
72124;BME280;63818;37.134;-8.548;2022-12-07T00:16:07;101237.8;;;15.0;92.8
72124;BME280;63818;37.134;-8.548;2022-12-07T00:21:00;101231.6;;;15.0;92.2
72124;BME280;63818;37.134;-8.548;2022-12-07T00:25:49;101222.7;;;15.0;92.2
72124;BME280;63818;37.134;-8.548;2022-12-07T00:30:40;101222.7;;;15.0;91.8
72124;BME280;63818;37.134;-8.548;2022-12-07T00:35:32;101220.0;;;15.0;91.8
72124;BME280;63818;37.134;-8.548;2022-12-07T00:40:20;101210.6;;;14.9;91.8
72124;BME280;63818;37.134;-8.548;2022-12-07T00:45:09;101205.7;;;15.0;91.9
72124;BME280;63818;37.134;-8.548;2022-12-07T00:49:58;101196.5;;;15.0;91.8
72124;BME280;63818;37.134;-8.548;2022-12-07T00:54:47;101198.0;;;15.0;91.6
72124;BME280;63818;37.134;-8.548;2022-12-07T00:59:35;101195.7;;;15.0;91.4
72124;BME280;63818;37.134;-8.548;2022-12-07T01:04:26;101184.8;;;15.0;91.0
72124;BME280;63818;37.134;-8.548;2022-12-07T01:09:15;101175.6;;;15.0;91.0
72124;BME280;63818;37.134;-8.548;2022-12-07T01:14:04;101168.3;;;15.0;91.1
72124;BME280;63818;37.134;-8.548;2022-12-07T01:18:54;101163.2;;;15.0;90.7
72124;BME280;63818;37.134;-8.548;2022-12-07T01:23:48;101160.2;;;15.0;91.0
72124;BME280;63818;37.134;-8.548;2022-12-07T01:28:37;101140.8;;;15.0;90.6
72124;BME280;63818;37.134;-8.548;2022-12-07T01:33:29;101145.4;;;14.9;90.5
72124;BME280;63818;37.134;-8.548;2022-12-07T01:38:18;101145.7;;;14.9;90.7
72124;BME280;63818;37.134;-8.548;2022-12-07T01:43:08;101129.6;;;15.0;90.8
72124;BME280;63818;37.134;-8.548;2022-12-07T01:47:58;101129.6;;;15.0;90.2
72124;BME280;63818;37.134;-8.548;2022-12-07T01:52:48;101134.2;;;15.0;90.5
72124;BME280;63818;37.134;-8.548;2022-12-07T01:57:40;101123.4;;;15.0;90.1
72124;BME280;63818;37.134;-8.548;2022-12-07T02:02:33;101131.9;;;14.9;90.0
72124;BME280;63818;37.134;-8.548;2022-12-07T02:07:23;101120.9;;;14.9;90.0
72124;BME280;63818;37.134;-8.548;2022-12-07T02:12:13;101106.6;;;14.9;89.9
72124;BME280;63818;37.134;-8.548;2022-12-07T02:17:09;101106.1;;;14.9;90.1
72124;BME280;63818;37.134;-8.548;2022-12-07T02:22:11;101109.3;;;14.9;90.4
72124;BME280;63818;37.134;-8.548;2022-12-07T02:28:27;101110.1;;;14.9;90.4
72124;BME280;63818;37.134;-8.548;2022-12-07T02:33:24;101106.7;;;14.9;90.4
72124;BME280;63818;37.134;-8.548;2022-12-07T02:38:17;101106.7;;;14.9;90.3
72124;BME280;63818;37.134;-8.548;2022-12-07T02:43:15;101105.9;;;14.9;90.4
72124;BME280;63818;37.134;-8.548;2022-12-07T02:48:10;101103.5;;;14.9;90.1
72124;BME280;63818;37.134;-8.548;2022-12-07T02:53:02;101091.9;;;14.9;90.0
72124;BME280;63818;37.134;-8.548;2022-12-07T02:58:04;101080.3;;;14.9;90.1
72124;BME280;63818;37.134;-8.548;2022-12-07T03:02:58;101077.9;;;14.9;90.1
72124;BME280;63818;37.134;-8.548;2022-12-07T03:07:53;101067.1;;;14.9;90.2
72124;BME280;63818;37.134;-8.548;2022-12-07T03:12:48;101051.7;;;14.9;90.4
72124;BME280;63818;37.134;-8.548;2022-12-07T03:17:43;101046.2;;;14.9;90.5
72124;BME280;63818;37.134;-8.548;2022-12-07T03:22:35;101032.7;;;14.9;90.3
72124;BME280;63818;37.134;-8.548;2022-12-07T03:27:30;101027.7;;;14.9;90.6
72124;BME280;63818;37.134;-8.548;2022-12-07T03:32:25;101016.7;;;14.9;90.8
72124;BME280;63818;37.134;-8.548;2022-12-07T03:37:22;101020.7;;;14.9;91.2
72124;BME280;63818;37.134;-8.548;2022-12-07T03:42:12;101020.2;;;14.9;90.9
72124;BME280;63818;37.134;-8.548;2022-12-07T03:47:03;101008.2;;;14.9;91.2
72124;BME280;63818;37.134;-8.548;2022-12-07T03:52:03;101013.7;;;14.9;91.3
72124;BME280;63818;37.134;-8.548;2022-12-07T03:56:57;101007.5;;;14.9;91.4
72124;BME280;63818;37.134;-8.548;2022-12-07T04:01:54;101012.4;;;14.9;91.5
72124;BME280;63818;37.134;-8.548;2022-12-07T04:06:43;101017.5;;;14.9;91.4
72124;BME280;63818;37.134;-8.548;2022-12-07T04:11:35;101002.4;;;14.9;91.4
72124;BME280;63818;37.134;-8.548;2022-12-07T04:16:23;101007.3;;;14.8;91.4
72124;BME280;63818;37.134;-8.548;2022-12-07T04:21:12;100989.5;;;14.8;91.4
72124;BME280;63818;37.134;-8.548;2022-12-07T04:26:01;100994.1;;;14.8;91.2
72124;BME280;63818;37.134;-8.548;2022-12-07T04:30:50;100990.1;;;14.8;91.5
72124;BME280;63818;37.134;-8.548;2022-12-07T04:35:42;100982.8;;;14.8;91.5
72124;BME280;63818;37.134;-8.548;2022-12-07T04:40:30;100969.6;;;14.8;91.6
72124;BME280;63818;37.134;-8.548;2022-12-07T04:45:19;100963.8;;;14.8;91.7
72124;BME280;63818;37.134;-8.548;2022-12-07T04:50:09;100954.9;;;14.8;91.6
72124;BME280;63818;37.134;-8.548;2022-12-07T04:54:58;100959.8;;;14.7;91.4
72124;BME280;63818;37.134;-8.548;2022-12-07T04:59:48;100959.5;;;14.8;91.7
72124;BME280;63818;37.134;-8.548;2022-12-07T05:04:37;100959.5;;;14.8;91.7
72124;BME280;63818;37.134;-8.548;2022-12-07T05:09:28;100952.6;;;14.8;91.5
72124;BME280;63818;37.134;-8.548;2022-12-07T05:14:18;100957.2;;;14.8;91.7
72124;BME280;63818;37.134;-8.548;2022-12-07T05:19:09;100955.0;;;14.8;91.8
72124;BME280;63818;37.134;-8.548;2022-12-07T05:24:01;100948.5;;;14.8;91.9
72124;BME280;63818;37.134;-8.548;2022-12-07T05:28:52;100937.6;;;14.8;92.0
72124;BME280;63818;37.134;-8.548;2022-12-07T05:33:41;100934.9;;;14.8;92.0
72124;BME280;63818;37.134;-8.548;2022-12-07T05:38:29;100922.9;;;14.8;91.9
72124;BME280;63818;37.134;-8.548;2022-12-07T05:43:20;100913.6;;;14.8;91.9
72124;BME280;63818;37.134;-8.548;2022-12-07T05:48:10;100920.6;;;14.8;91.7
72124;BME280;63818;37.134;-8.548;2022-12-07T05:52:59;100924.1;;;14.8;92.1
72124;BME280;63818;37.134;-8.548;2022-12-07T05:57:48;100916.5;;;14.8;91.8
72124;BME280;63818;37.134;-8.548;2022-12-07T06:02:38;100904.1;;;14.8;92.3
72124;BME280;63818;37.134;-8.548;2022-12-07T06:07:27;100896.3;;;14.8;92.2
72124;BME280;63818;37.134;-8.548;2022-12-07T06:12:18;100894.4;;;14.8;92.4
72124;BME280;63818;37.134;-8.548;2022-12-07T06:17:07;100893.2;;;14.8;92.6
72124;BME280;63818;37.134;-8.548;2022-12-07T06:21:58;100895.2;;;14.8;92.7
72124;BME280;63818;37.134;-8.548;2022-12-07T06:26:50;100901.4;;;14.8;92.9
72124;BME280;63818;37.134;-8.548;2022-12-07T06:31:39;100895.6;;;14.8;92.8
72124;BME280;63818;37.134;-8.548;2022-12-07T06:36:31;100903.8;;;14.8;93.1
72124;BME280;63818;37.134;-8.548;2022-12-07T06:41:20;100903.4;;;14.8;93.5
72124;BME280;63818;37.134;-8.548;2022-12-07T06:46:10;100888.0;;;14.9;93.7
72124;BME280;63818;37.134;-8.548;2022-12-07T06:50:59;100886.0;;;14.9;93.7
72124;BME280;63818;37.134;-8.548;2022-12-07T06:55:50;100884.1;;;14.9;93.8
72124;BME280;63818;37.134;-8.548;2022-12-07T07:00:39;100880.6;;;14.9;94.0
72124;BME280;63818;37.134;-8.548;2022-12-07T07:05:28;100880.3;;;14.9;94.4
72124;BME280;63818;37.134;-8.548;2022-12-07T07:10:16;100876.5;;;14.9;94.6
72124;BME280;63818;37.134;-8.548;2022-12-07T07:15:06;100867.6;;;14.9;94.9
72124;BME280;63818;37.134;-8.548;2022-12-07T07:19:57;100866.8;;;14.9;94.9
72124;BME280;63818;37.134;-8.548;2022-12-07T07:24:46;100867.2;;;14.9;95.3
72124;BME280;63818;37.134;-8.548;2022-12-07T07:29:35;100873.5;;;14.9;95.4
72124;BME280;63818;37.134;-8.548;2022-12-07T07:34:23;100866.1;;;14.9;95.8
72124;BME280;63818;37.134;-8.548;2022-12-07T07:39:12;100862.3;;;14.9;95.9
72124;BME280;63818;37.134;-8.548;2022-12-07T07:44:04;100862.0;;;14.9;96.3
72124;BME280;63818;37.134;-8.548;2022-12-07T07:48:53;100869.4;;;14.9;97.0
72124;BME280;63818;37.134;-8.548;2022-12-07T07:53:41;100869.1;;;15.0;97.4
72124;BME280;63818;37.134;-8.548;2022-12-07T07:58:30;100870.3;;;15.0;97.8
72124;BME280;63818;37.134;-8.548;2022-12-07T08:03:20;100883.1;;;15.0;98.7
72124;BME280;63818;37.134;-8.548;2022-12-07T08:08:11;100870.8;;;15.0;99.1
72124;BME280;63818;37.134;-8.548;2022-12-07T08:12:59;100865.8;;;15.0;99.8
72124;BME280;63818;37.134;-8.548;2022-12-07T08:17:48;100860.1;;;15.1;100.0
72124;BME280;63818;37.134;-8.548;2022-12-07T08:22:42;100861.7;;;15.1;100.0
72124;BME280;63818;37.134;-8.548;2022-12-07T08:27:31;100852.0;;;15.1;100.0
72124;BME280;63818;37.134;-8.548;2022-12-07T08:32:19;100857.9;;;15.1;100.0
72124;BME280;63818;37.134;-8.548;2022-12-07T08:37:07;100859.4;;;15.1;100.0
72124;BME280;63818;37.134;-8.548;2022-12-07T08:41:59;100855.9;;;15.1;100.0
72124;BME280;63818;37.134;-8.548;2022-12-07T08:46:51;100870.2;;;15.1;100.0
72124;BME280;63818;37.134;-8.548;2022-12-07T08:51:46;100861.7;;;15.1;100.0
72124;BME280;63818;37.134;-8.548;2022-12-07T08:56:35;100855.1;;;15.1;100.0
72124;BME280;63818;37.134;-8.548;2022-12-07T09:01:24;100847.5;;;15.1;100.0
72124;BME280;63818;37.134;-8.548;2022-12-07T09:06:13;100849.0;;;15.1;100.0
72124;BME280;63818;37.134;-8.548;2022-12-07T09:11:02;100849.4;;;15.1;100.0
72124;BME280;63818;37.134;-8.548;2022-12-07T09:15:51;100851.8;;;15.1;100.0
72124;BME280;63818;37.134;-8.548;2022-12-07T09:20:40;100845.2;;;15.1;100.0
72124;BME280;63818;37.134;-8.548;2022-12-07T09:25:30;100849.0;;;15.1;100.0
72124;BME280;63818;37.134;-8.548;2022-12-07T09:30:19;100854.8;;;15.1;100.0
72124;BME280;63818;37.134;-8.548;2022-12-07T09:35:08;100851.4;;;15.1;100.0
72124;BME280;63818;37.134;-8.548;2022-12-07T09:39:57;100846.8;;;15.1;100.0
72124;BME280;63818;37.134;-8.548;2022-12-07T09:44:48;100842.3;;;15.2;100.0
72124;BME280;63818;37.134;-8.548;2022-12-07T09:49:39;100859.0;;;15.2;100.0
72124;BME280;63818;37.134;-8.548;2022-12-07T09:54:28;100869.0;;;15.2;100.0
72124;BME280;63818;37.134;-8.548;2022-12-07T09:59:18;100882.2;;;15.2;100.0
72124;BME280;63818;37.134;-8.548;2022-12-07T10:04:11;100878.8;;;15.2;100.0
72124;BME280;63818;37.134;-8.548;2022-12-07T10:08:58;100874.9;;;15.2;100.0
72124;BME280;63818;37.134;-8.548;2022-12-07T10:13:48;100885.4;;;15.2;100.0
72124;BME280;63818;37.134;-8.548;2022-12-07T10:18:40;100869.6;;;15.2;100.0
72124;BME280;63818;37.134;-8.548;2022-12-07T10:23:30;100872.8;;;15.2;100.0
72124;BME280;63818;37.134;-8.548;2022-12-07T10:28:21;100865.2;;;15.3;100.0
72124;BME280;63818;37.134;-8.548;2022-12-07T10:33:37;100886.2;;;15.3;100.0
72124;BME280;63818;37.134;-8.548;2022-12-07T10:38:29;100876.6;;;15.4;100.0
72124;BME280;63818;37.134;-8.548;2022-12-07T10:43:19;100869.4;;;15.4;100.0
72124;BME280;63818;37.134;-8.548;2022-12-07T10:48:11;100859.4;;;15.4;100.0
72124;BME280;63818;37.134;-8.548;2022-12-07T10:54:59;100852.3;;;15.5;100.0
72124;BME280;63818;37.134;-8.548;2022-12-07T11:00:03;100834.8;;;15.6;100.0
72124;BME280;63818;37.134;-8.548;2022-12-07T11:05:01;100817.7;;;15.7;100.0
72124;BME280;63818;37.134;-8.548;2022-12-07T11:10:01;100831.8;;;15.7;100.0
72124;BME280;63818;37.134;-8.548;2022-12-07T11:14:57;100818.0;;;15.8;100.0
72124;BME280;63818;37.134;-8.548;2022-12-07T11:19:54;100818.9;;;15.8;100.0
72124;BME280;63818;37.134;-8.548;2022-12-07T11:24:58;100810.1;;;15.8;100.0
72124;BME280;63818;37.134;-8.548;2022-12-07T11:30:09;100797.4;;;15.8;100.0
72124;BME280;63818;37.134;-8.548;2022-12-07T11:35:11;100792.0;;;15.8;100.0
72124;BME280;63818;37.134;-8.548;2022-12-07T11:40:05;100784.6;;;15.9;100.0
72124;BME280;63818;37.134;-8.548;2022-12-07T11:45:02;100776.5;;;15.9;100.0
72124;BME280;63818;37.134;-8.548;2022-12-07T11:49:54;100764.4;;;15.8;100.0
72124;BME280;63818;37.134;-8.548;2022-12-07T11:54:52;100753.6;;;15.8;100.0
72124;BME280;63818;37.134;-8.548;2022-12-07T11:59:46;100738.5;;;15.9;100.0
72124;BME280;63818;37.134;-8.548;2022-12-07T12:04:46;100709.2;;;15.9;100.0
72124;BME280;63818;37.134;-8.548;2022-12-07T12:09:45;100712.4;;;15.9;100.0
72124;BME280;63818;37.134;-8.548;2022-12-07T12:14:48;100710.0;;;15.9;100.0
72124;BME280;63818;37.134;-8.548;2022-12-07T12:19:44;100696.1;;;15.9;100.0
72124;BME280;63818;37.134;-8.548;2022-12-07T12:24:34;100687.6;;;15.9;100.0
72124;BME280;63818;37.134;-8.548;2022-12-07T12:29:28;100680.8;;;16.0;100.0
72124;BME280;63818;37.134;-8.548;2022-12-07T12:34:33;100674.0;;;16.0;100.0
72124;BME280;63818;37.134;-8.548;2022-12-07T12:39:26;100646.8;;;16.1;100.0
72124;BME280;63818;37.134;-8.548;2022-12-07T12:44:41;100651.9;;;16.1;100.0
72124;BME280;63818;37.134;-8.548;2022-12-07T12:49:37;100636.8;;;16.1;100.0
72124;BME280;63818;37.134;-8.548;2022-12-07T12:54:27;100623.9;;;16.2;100.0
72124;BME280;63818;37.134;-8.548;2022-12-07T12:59:29;100606.7;;;16.3;100.0
72124;BME280;63818;37.134;-8.548;2022-12-07T13:04:34;100599.6;;;16.4;100.0
72124;BME280;63818;37.134;-8.548;2022-12-07T13:09:27;100595.9;;;16.5;100.0
72124;BME280;63818;37.134;-8.548;2022-12-07T13:14:53;100579.0;;;16.5;100.0
72124;BME280;63818;37.134;-8.548;2022-12-07T13:19:55;100581.1;;;16.6;100.0
72124;BME280;63818;37.134;-8.548;2022-12-07T13:24:46;100570.2;;;16.6;100.0
72124;BME280;63818;37.134;-8.548;2022-12-07T13:29:54;100566.0;;;16.6;100.0
72124;BME280;63818;37.134;-8.548;2022-12-07T13:34:44;100550.7;;;16.7;100.0
72124;BME280;63818;37.134;-8.548;2022-12-07T13:39:35;100541.5;;;16.8;100.0
72124;BME280;63818;37.134;-8.548;2022-12-07T13:44:39;100522.0;;;16.7;100.0
72124;BME280;63818;37.134;-8.548;2022-12-07T13:49:30;100511.9;;;16.7;100.0
72124;BME280;63818;37.134;-8.548;2022-12-07T13:54:19;100502.9;;;16.7;100.0
72124;BME280;63818;37.134;-8.548;2022-12-07T13:59:18;100485.4;;;16.6;100.0
72124;BME280;63818;37.134;-8.548;2022-12-07T14:04:30;100492.0;;;16.6;100.0
72124;BME280;63818;37.134;-8.548;2022-12-07T14:09:21;100495.8;;;16.6;100.0
72124;BME280;63818;37.134;-8.548;2022-12-07T14:14:30;100480.7;;;16.6;100.0
72124;BME280;63818;37.134;-8.548;2022-12-07T14:19:48;100481.1;;;16.6;100.0
72124;BME280;63818;37.134;-8.548;2022-12-07T14:24:43;100466.5;;;16.6;100.0
72124;BME280;63818;37.134;-8.548;2022-12-07T14:29:39;100469.8;;;16.6;100.0
72124;BME280;63818;37.134;-8.548;2022-12-07T14:34:28;100472.0;;;16.5;100.0
72124;BME280;63818;37.134;-8.548;2022-12-07T14:39:23;100472.7;;;16.5;100.0
72124;BME280;63818;37.134;-8.548;2022-12-07T14:44:13;100470.2;;;16.4;100.0
72124;BME280;63818;37.134;-8.548;2022-12-07T14:49:03;100461.2;;;16.4;100.0
72124;BME280;63818;37.134;-8.548;2022-12-07T14:53:51;100452.0;;;16.4;100.0
72124;BME280;63818;37.134;-8.548;2022-12-07T14:58:52;100440.0;;;16.5;100.0
72124;BME280;63818;37.134;-8.548;2022-12-07T15:03:41;100433.9;;;16.5;100.0
72124;BME280;63818;37.134;-8.548;2022-12-07T15:08:29;100439.0;;;16.5;100.0
72124;BME280;63818;37.134;-8.548;2022-12-07T15:13:23;100438.2;;;16.5;100.0
72124;BME280;63818;37.134;-8.548;2022-12-07T15:18:12;100438.6;;;16.5;100.0
72124;BME280;63818;37.134;-8.548;2022-12-07T15:23:00;100439.2;;;16.5;100.0
72124;BME280;63818;37.134;-8.548;2022-12-07T15:27:49;100440.8;;;16.5;100.0
72124;BME280;63818;37.134;-8.548;2022-12-07T15:32:39;100414.7;;;16.5;100.0
72124;BME280;63818;37.134;-8.548;2022-12-07T15:37:28;100412.7;;;16.5;100.0
72124;BME280;63818;37.134;-8.548;2022-12-07T15:42:20;100415.9;;;16.6;100.0
72124;BME280;63818;37.134;-8.548;2022-12-07T15:47:11;100439.9;;;16.5;100.0
72124;BME280;63818;37.134;-8.548;2022-12-07T15:51:59;100453.4;;;16.5;100.0
72124;BME280;63818;37.134;-8.548;2022-12-07T15:56:49;100443.6;;;16.5;100.0
72124;BME280;63818;37.134;-8.548;2022-12-07T16:01:38;100432.0;;;16.5;100.0
72124;BME280;63818;37.134;-8.548;2022-12-07T16:06:32;100426.5;;;16.5;100.0
72124;BME280;63818;37.134;-8.548;2022-12-07T16:11:21;100405.1;;;16.4;100.0
72124;BME280;63818;37.134;-8.548;2022-12-07T16:16:13;100414.0;;;16.4;100.0
72124;BME280;63818;37.134;-8.548;2022-12-07T16:21:04;100400.0;;;16.4;100.0
72124;BME280;63818;37.134;-8.548;2022-12-07T16:25:53;100407.7;;;16.4;100.0
72124;BME280;63818;37.134;-8.548;2022-12-07T16:30:42;100387.5;;;16.3;100.0
72124;BME280;63818;37.134;-8.548;2022-12-07T16:35:37;100378.2;;;16.4;100.0
72124;BME280;63818;37.134;-8.548;2022-12-07T16:40:26;100363.6;;;16.4;100.0
72124;BME280;63818;37.134;-8.548;2022-12-07T16:45:32;100361.0;;;16.4;100.0
72124;BME280;63818;37.134;-8.548;2022-12-07T16:50:23;100365.2;;;16.5;100.0
72124;BME280;63818;37.134;-8.548;2022-12-07T16:55:14;100345.6;;;16.5;100.0
72124;BME280;63818;37.134;-8.548;2022-12-07T17:00:15;100345.9;;;16.5;100.0
72124;BME280;63818;37.134;-8.548;2022-12-07T17:05:04;100346.6;;;16.4;100.0
72124;BME280;63818;37.134;-8.548;2022-12-07T17:10:01;100345.8;;;16.4;100.0
72124;BME280;63818;37.134;-8.548;2022-12-07T17:14:50;100320.6;;;16.4;100.0
72124;BME280;63818;37.134;-8.548;2022-12-07T17:19:41;100334.5;;;16.4;100.0
72124;BME280;63818;37.134;-8.548;2022-12-07T17:24:29;100332.6;;;16.4;100.0
72124;BME280;63818;37.134;-8.548;2022-12-07T17:29:20;100318.6;;;16.4;100.0
72124;BME280;63818;37.134;-8.548;2022-12-07T17:34:12;100314.9;;;16.4;100.0
72124;BME280;63818;37.134;-8.548;2022-12-07T17:39:06;100311.5;;;16.5;100.0
72124;BME280;63818;37.134;-8.548;2022-12-07T17:43:56;100306.8;;;16.5;100.0
72124;BME280;63818;37.134;-8.548;2022-12-07T17:48:45;100297.9;;;16.5;100.0
72124;BME280;63818;37.134;-8.548;2022-12-07T17:53:34;100303.4;;;16.5;100.0
72124;BME280;63818;37.134;-8.548;2022-12-07T17:58:25;100308.5;;;16.5;100.0
72124;BME280;63818;37.134;-8.548;2022-12-07T18:03:13;100293.3;;;16.5;100.0
72124;BME280;63818;37.134;-8.548;2022-12-07T18:08:02;100290.3;;;16.6;100.0
72124;BME280;63818;37.134;-8.548;2022-12-07T18:12:50;100291.9;;;16.6;100.0
72124;BME280;63818;37.134;-8.548;2022-12-07T18:17:39;100288.8;;;16.6;100.0
72124;BME280;63818;37.134;-8.548;2022-12-07T18:22:27;100288.5;;;16.6;100.0
72124;BME280;63818;37.134;-8.548;2022-12-07T18:27:16;100278.8;;;16.6;100.0
72124;BME280;63818;37.134;-8.548;2022-12-07T18:32:10;100272.7;;;16.6;100.0
72124;BME280;63818;37.134;-8.548;2022-12-07T18:36:59;100276.3;;;16.7;100.0
72124;BME280;63818;37.134;-8.548;2022-12-07T18:41:53;100263.5;;;16.7;100.0
72124;BME280;63818;37.134;-8.548;2022-12-07T18:46:42;100259.7;;;16.7;100.0
72124;BME280;63818;37.134;-8.548;2022-12-07T18:51:30;100241.6;;;16.8;100.0
72124;BME280;63818;37.134;-8.548;2022-12-07T18:56:21;100242.4;;;16.8;100.0
72124;BME280;63818;37.134;-8.548;2022-12-07T19:01:10;100223.3;;;16.8;100.0
72124;BME280;63818;37.134;-8.548;2022-12-07T19:06:06;100218.6;;;16.7;100.0
72124;BME280;63818;37.134;-8.548;2022-12-07T19:10:57;100218.6;;;16.7;100.0
72124;BME280;63818;37.134;-8.548;2022-12-07T19:15:46;100227.2;;;16.7;100.0
72124;BME280;63818;37.134;-8.548;2022-12-07T19:20:37;100223.2;;;16.7;100.0
72124;BME280;63818;37.134;-8.548;2022-12-07T19:25:26;100220.5;;;16.7;100.0
72124;BME280;63818;37.134;-8.548;2022-12-07T19:30:15;100219.0;;;16.7;100.0
72124;BME280;63818;37.134;-8.548;2022-12-07T19:35:04;100231.1;;;16.8;100.0
72124;BME280;63818;37.134;-8.548;2022-12-07T19:39:53;100227.2;;;16.8;100.0
72124;BME280;63818;37.134;-8.548;2022-12-07T19:44:51;100206.5;;;16.9;100.0
72124;BME280;63818;37.134;-8.548;2022-12-07T19:49:40;100214.3;;;16.9;100.0
72124;BME280;63818;37.134;-8.548;2022-12-07T19:54:30;100218.3;;;17.0;100.0
72124;BME280;63818;37.134;-8.548;2022-12-07T19:59:20;100214.7;;;16.9;100.0
72124;BME280;63818;37.134;-8.548;2022-12-07T20:04:15;100191.4;;;16.9;100.0
72124;BME280;63818;37.134;-8.548;2022-12-07T20:09:14;100192.1;;;16.9;100.0
72124;BME280;63818;37.134;-8.548;2022-12-07T20:14:04;100178.2;;;16.9;100.0
72124;BME280;63818;37.134;-8.548;2022-12-07T20:23:51;100194.6;;;17.0;100.0
72124;BME280;63818;37.134;-8.548;2022-12-07T20:28:40;100198.0;;;16.9;100.0
72124;BME280;63818;37.134;-8.548;2022-12-07T20:33:29;100189.9;;;16.9;100.0
72124;BME280;63818;37.134;-8.548;2022-12-07T20:38:18;100194.1;;;16.9;100.0
72124;BME280;63818;37.134;-8.548;2022-12-07T20:43:07;100192.5;;;16.9;100.0
72124;BME280;63818;37.134;-8.548;2022-12-07T20:47:56;100175.8;;;16.9;100.0
72124;BME280;63818;37.134;-8.548;2022-12-07T20:52:47;100156.4;;;16.9;100.0
72124;BME280;63818;37.134;-8.548;2022-12-07T20:57:39;100159.1;;;16.8;100.0
72124;BME280;63818;37.134;-8.548;2022-12-07T21:02:27;100145.1;;;16.8;100.0
72124;BME280;63818;37.134;-8.548;2022-12-07T21:07:21;100146.6;;;16.8;100.0
72124;BME280;63818;37.134;-8.548;2022-12-07T21:12:12;100160.9;;;16.8;100.0
72124;BME280;63818;37.134;-8.548;2022-12-07T21:17:01;100146.9;;;16.7;100.0
72124;BME280;63818;37.134;-8.548;2022-12-07T21:21:50;100148.9;;;16.7;100.0
72124;BME280;63818;37.134;-8.548;2022-12-07T21:26:39;100145.7;;;16.7;100.0
72124;BME280;63818;37.134;-8.548;2022-12-07T21:31:30;100153.5;;;16.7;100.0
72124;BME280;63818;37.134;-8.548;2022-12-07T21:36:24;100141.4;;;16.7;100.0
72124;BME280;63818;37.134;-8.548;2022-12-07T21:41:16;100144.1;;;16.7;100.0
72124;BME280;63818;37.134;-8.548;2022-12-07T21:46:05;100143.0;;;16.7;100.0
72124;BME280;63818;37.134;-8.548;2022-12-07T21:50:54;100124.0;;;16.7;100.0
72124;BME280;63818;37.134;-8.548;2022-12-07T21:55:43;100122.9;;;16.7;100.0
72124;BME280;63818;37.134;-8.548;2022-12-07T22:00:33;100114.8;;;16.8;100.0
72124;BME280;63818;37.134;-8.548;2022-12-07T22:05:21;100120.2;;;16.8;100.0
72124;BME280;63818;37.134;-8.548;2022-12-07T22:10:10;100127.6;;;16.8;100.0
72124;BME280;63818;37.134;-8.548;2022-12-07T22:14:59;100116.0;;;16.8;100.0
72124;BME280;63818;37.134;-8.548;2022-12-07T22:19:59;100104.9;;;16.9;100.0
72124;BME280;63818;37.134;-8.548;2022-12-07T22:24:49;100104.5;;;16.9;100.0
72124;BME280;63818;37.134;-8.548;2022-12-07T22:29:40;100087.3;;;16.8;100.0
72124;BME280;63818;37.134;-8.548;2022-12-07T22:34:29;100100.6;;;16.9;100.0
72124;BME280;63818;37.134;-8.548;2022-12-07T22:39:21;100090.5;;;16.9;100.0
72124;BME280;63818;37.134;-8.548;2022-12-07T22:44:10;100083.9;;;16.8;100.0
72124;BME280;63818;37.134;-8.548;2022-12-07T22:49:01;100079.9;;;16.8;100.0
72124;BME280;63818;37.134;-8.548;2022-12-07T22:53:50;100068.1;;;16.9;100.0
72124;BME280;63818;37.134;-8.548;2022-12-07T22:58:40;100070.8;;;17.1;100.0
72124;BME280;63818;37.134;-8.548;2022-12-07T23:03:28;100068.9;;;17.2;100.0
72124;BME280;63818;37.134;-8.548;2022-12-07T23:08:19;100056.4;;;17.1;100.0
72124;BME280;63818;37.134;-8.548;2022-12-07T23:13:08;100070.3;;;17.1;100.0
72124;BME280;63818;37.134;-8.548;2022-12-07T23:17:57;100046.3;;;17.1;100.0
72124;BME280;63818;37.134;-8.548;2022-12-07T23:22:48;100008.1;;;16.9;100.0
72124;BME280;63818;37.134;-8.548;2022-12-07T23:27:37;99998.3;;;16.9;100.0
72124;BME280;63818;37.134;-8.548;2022-12-07T23:32:26;100005.3;;;16.9;100.0
72124;BME280;63818;37.134;-8.548;2022-12-07T23:37:15;100015.1;;;17.0;100.0
72124;BME280;63818;37.134;-8.548;2022-12-07T23:42:07;100024.7;;;16.9;100.0
72124;BME280;63818;37.134;-8.548;2022-12-07T23:46:57;100024.1;;;16.8;100.0
72124;BME280;63818;37.134;-8.548;2022-12-07T23:51:45;100010.4;;;16.7;100.0
72124;BME280;63818;37.134;-8.548;2022-12-07T23:56:34;100011.1;;;16.6;100.0
